• Join FlightAware (Why Join?)
  • Login
  • US Flag 
07:40PM EDT


 

Airport Tracker/Info


-or-


 

Live Flight TrackerFlight Track Log ✈ N722Q ✈ 21-Sep-2013 ✈ KCMH - KLUK

Flight Track Log - Related Links

Times and Time Zones

All times are in EDT time to prevent confusion due to time zone crossing. See the N722Q flight status page for this flight to view local times or setup timezone preferences in your user account.

Time Position Orientation Groundspeed Altitude Reporting Facility
EDT Latitude Longitude Course Direction KTS MPH feet Rate Location/Type
11:17AM 39.9800 -82.9280 233° Southwest 185 213 2,100  Level FlightAware
11:17AM 39.9670 -82.9450 225° Southwest 200 230 2,800 1,980 Climbing FlightAware
11:17AM 39.9550 -82.9590 222° Southwest 208 239 3,300 2,580 Climbing FlightAware
11:18AM 39.9450 -82.9730 227° Southwest 196 226 4,200 3,420 Climbing FlightAware
11:18AM 39.9330 -82.9910 229° Southwest 171 197 5,500 3,120 Climbing FlightAware
11:18AM 39.9200 -83.0090 227° Southwest 165 190 6,600 2,040 Climbing FlightAware
11:19AM 39.9090 -83.0250 228° Southwest 186 214 7,000 1,020 Climbing FlightAware
11:19AM 39.8990 -83.0460 238° Southwest 213 245 7,300 1,560 Climbing FlightAware
11:19AM 39.8880 -83.0680 237° Southwest 211 243 8,100 2,700 Climbing FlightAware
11:20AM 39.8750 -83.0890 231° Southwest 185 213 9,300 2,520 Climbing FlightAware
11:20AM 39.8650 -83.1070 234° Southwest 183 211 9,900 900 Climbing FlightAware
11:21AM 39.8440 -83.1440 234° Southwest 234 269 10,200 240 Climbing FlightAware
11:21AM 39.8210 -83.1840 233° Southwest 257 296 10,200 60 Level FlightAware
11:22AM 39.7960 -83.2290 234° Southwest 253 291 10,300  Climbing FlightAware
11:22AM 39.7740 -83.2690 234° Southwest 252 290 10,200 -300 Descending FlightAware
11:23AM 39.7500 -83.3120 234° Southwest 259 298 10,000  Descending FlightAware
11:24AM 39.7240 -83.3560 232° Southwest 250 288 10,200 120 Climbing FlightAware
11:24AM 39.7010 -83.3940 232° Southwest 249 287 10,200  Level FlightAware
11:25AM 39.6760 -83.4400 235° Southwest 249 287 10,200  Level FlightAware
11:25AM 39.6510 -83.4830 233° Southwest 248 285 10,200  Level FlightAware
11:26AM 39.6270 -83.5270 235° Southwest 247 284 10,200  Level FlightAware
11:27AM 39.6050 -83.5650 233° Southwest 247 284 10,200  Level FlightAware
11:27AM 39.5840 -83.5990 231° Southwest 247 284 10,200  Level FlightAware
11:28AM 39.5580 -83.6430 233° Southwest 249 287 10,200  Level FlightAware
11:28AM 39.5310 -83.6890 233° Southwest 249 287 10,200  Level FlightAware
11:29AM 39.5040 -83.7360 233° Southwest 248 285 10,200  Level FlightAware
11:29AM 39.4820 -83.7730 232° Southwest 247 284 10,200 -240 Level FlightAware
11:30AM 39.4680 -83.7970 233° Southwest 258 297 10,000 -600 Descending FlightAware
11:30AM 39.4390 -83.8440 231° Southwest 268 308 9,600 -420 Descending FlightAware
11:31AM 39.4230 -83.8690 230° Southwest 268 308 9,600  Level FlightAware
11:31AM 39.4070 -83.8950 231° Southwest 268 308 9,600  Level FlightAware
11:32AM 39.3920 -83.9190 231° Southwest 268 308 9,600 -3,000 Level FlightAware
11:33AM 39.3500 -84.0000 231° Southwest 256 295 5,400 -2,820 Descending Cincinnati TRACON
11:34AM 39.3000 -84.0667 226° Southwest 242 278 4,000 -660 Descending Cincinnati TRACON
11:35AM 39.2500 -84.1167 218° Southwest 205 236 4,100  Climbing Cincinnati TRACON
11:36AM 39.2000 -84.1667 218° Southwest 194 223 4,000 -60 Descending Cincinnati TRACON
11:37AM 39.1667 -84.2000 218° Southwest 191 220 4,000  Level Cincinnati TRACON
11:38AM 39.1167 -84.2333 207° Southwest 190 219 4,000  Level Cincinnati TRACON
11:38AM 39.1031 -84.2583 235° Southwest 188 216 4,000 -300 Level Indianapolis Center
11:39AM 39.0611 -84.2981 216° Southwest 187 215 3,600 -480 Descending Indianapolis Center
11:40AM 39.0061 -84.3428 212° Southwest 199 229 3,100 -180 Descending Indianapolis Center
11:42AM 38.9333 -84.4167 218° Southwest 197 227 3,200 -60 Climbing Cincinnati TRACON
11:43AM 38.9167 -84.4833 252° West 166 191 3,000 -300 Descending Cincinnati TRACON
11:44AM 38.9667 -84.5000 345° North 179 206 2,600 -480 Descending Cincinnati TRACON
11:45AM 38.9833 -84.4667 57° Northeast 201 231 2,200 -300 Descending Cincinnati TRACON
11:46AM 39.0333 -84.4333 27° Northeast 181 208 2,100 -540 Descending Cincinnati TRACON
11:47AM 39.0667 -84.4333 360° North 99 114 1,200 -900 Descending Cincinnati TRACON
11:49AM 39.1000 -84.4167 North  Level FlightAware Approximate
11:56AM 39.1033 -84.4186 North  Level Estimated
11:57AM 39.1000 -84.4167 North  Level FlightAware Approximate
11:58AM 39.1033 -84.4186 North  Level Estimated
11:59AM 39.1000 -84.4167 North  Level FlightAware Approximate
12:00PM 39.1033 -84.4186 North  Level Estimated
12:01PM 39.1000 -84.4167 North  Level FlightAware Approximate